Time;durP1;ratioP1;P1;durP2;ratioP2;P2;SDS_P1;SDS_P2;PMS_P1;PMS_P2;Temp;Humidity;BMP_temperature;BMP_pressure;BME280_temperature;BME280_humidity;BME280_pressure;Samples;Min_cycle;Max_cycle;Signal;HPM_P1;HPM_P2
2023/05/29 00:05:16;;;;;;;13.60;6.80;;;;;;;10.19;61.85;98851.81;435510;1250;107678;-43
2023/05/29 00:15:23;;;;;;;12.50;6.50;;;;;;;9.92;62.03;98847.73;435492;1254;96629;-42
2023/05/29 00:25:31;;;;;;;11.90;6.40;;;;;;;9.62;62.60;98855.66;435319;1249;109392;-42
2023/05/29 00:35:37;;;;;;;11.60;5.60;;;;;;;9.41;62.96;98855.80;435219;1250;108398;-43
2023/05/29 00:45:46;;;;;;;13.10;6.30;;;;;;;9.30;63.27;98855.98;435460;1249;97909;-43
2023/05/29 00:55:53;;;;;;;16.10;6.00;;;;;;;9.30;63.93;98850.67;435335;1254;110076;-43
2023/05/29 01:06:01;;;;;;;14.40;7.10;;;;;;;9.40;64.36;98847.11;435342;1254;107880;-43
2023/05/29 01:16:06;;;;;;;11.30;5.40;;;;;;;9.21;64.49;98834.22;435306;1249;97956;-43
2023/05/29 01:26:36;;;;;;;22.40;6.50;;;;;;;8.94;64.76;98835.48;435332;1253;108874;-42
2023/05/29 01:36:43;;;;;;;11.10;4.80;;;;;;;8.73;65.13;98833.05;435971;1250;109427;-43
2023/05/29 01:46:52;;;;;;;11.40;5.30;;;;;;;8.64;65.37;98830.92;435306;1256;97871;-44
2023/05/29 01:57:00;;;;;;;12.10;4.70;;;;;;;8.59;65.69;98826.91;435327;1254;106478;-42
2023/05/29 02:17:14;;;;;;;16.40;7.30;;;;;;;8.58;66.11;98817.54;435183;1250;108736;-42
2023/05/29 02:27:22;;;;;;;13.20;6.40;;;;;;;8.26;66.59;98807.46;435509;1250;108323;-43
2023/05/29 02:37:29;;;;;;;14.00;6.60;;;;;;;8.16;66.86;98808.56;435158;1256;97897;-43
2023/05/29 02:47:36;;;;;;;14.80;6.20;;;;;;;8.04;66.97;98805.48;435329;1250;110378;-43
2023/05/29 02:57:43;;;;;;;14.00;8.30;;;;;;;8.23;67.25;98807.80;435411;1254;107102;-42
2023/05/29 03:07:50;;;;;;;17.70;8.90;;;;;;;8.34;67.30;98805.34;435311;1256;96624;-42
2023/05/29 03:17:58;;;;;;;19.20;10.60;;;;;;;8.50;67.44;98796.98;435374;1250;109897;-43
2023/05/29 03:28:05;;;;;;;13.50;7.50;;;;;;;9.48;67.41;98794.64;435239;1256;109228;-42
2023/05/29 03:38:12;;;;;;;16.20;8.20;;;;;;;10.91;66.49;98786.48;435301;1250;97880;-42
2023/05/29 03:48:19;;;;;;;12.30;7.80;;;;;;;12.24;65.65;98784.48;435347;1254;110750;-43
2023/05/29 03:58:27;;;;;;;19.10;8.90;;;;;;;13.42;64.10;98793.04;435049;1250;432283;-42
2023/05/29 04:08:34;;;;;;;36.70;11.30;;;;;;;14.30;62.71;98790.35;435433;1256;108712;-42
2023/05/29 04:18:41;;;;;;;31.10;10.20;;;;;;;14.99;61.98;98797.29;435313;1250;109991;-42
2023/05/29 04:28:49;;;;;;;39.40;11.50;;;;;;;16.72;60.79;98801.84;435392;1250;97967;-45
2023/05/29 04:38:53;;;;;;;34.40;12.20;;;;;;;17.70;58.95;98810.09;435290;1255;108299;-42
2023/05/29 04:49:02;;;;;;;34.40;10.70;;;;;;;18.39;58.01;98815.60;435379;1256;97920;-43
2023/05/29 04:59:10;;;;;;;42.70;10.00;;;;;;;19.29;57.06;98820.05;435470;1254;110496;-43
2023/05/29 05:19:24;;;;;;;20.20;7.10;;;;;;;19.50;55.49;98835.90;435214;1257;97471;-41
2023/05/29 05:29:32;;;;;;;18.30;7.10;;;;;;;19.69;54.82;98841.85;435297;1250;109854;-42
2023/05/29 05:39:39;;;;;;;15.70;7.10;;;;;;;19.66;54.59;98841.70;435561;1250;107764;-41
2023/05/29 05:49:46;;;;;;;11.10;6.30;;;;;;;19.91;53.79;98848.70;435320;1256;96647;-41
2023/05/29 05:59:54;;;;;;;10.20;5.50;;;;;;;20.18;53.25;98848.67;435331;1250;109805;-43
2023/05/29 06:10:01;;;;;;;15.90;5.50;;;;;;;20.46;52.35;98854.34;435433;1251;108074;-43
2023/05/29 06:20:10;;;;;;;14.60;5.50;;;;;;;20.17;52.01;98855.27;435339;1250;97957;-42
2023/05/29 06:30:18;;;;;;;11.20;6.10;;;;;;;20.68;51.45;98851.89;435209;1256;110004;-43
2023/05/29 06:40:26;;;;;;;25.30;6.90;;;;;;;20.68;51.20;98853.56;435545;1256;109064;-42
2023/05/29 07:00:40;;;;;;;11.00;5.80;;;;;;;21.79;49.76;98862.36;435409;1256;110924;-42
2023/05/29 07:10:48;;;;;;;12.60;5.80;;;;;;;21.96;49.34;98871.31;435431;1256;108511;-42
2023/05/29 07:20:53;;;;;;;;;;;;;;;21.74;48.59;98875.96;435487;1256;97482;-43
2023/05/29 07:31:01;;;;;;;9.10;3.60;;;;;;;21.80;48.06;98878.96;435321;1256;111695;-42
2023/05/29 07:41:08;;;;;;;12.70;3.80;;;;;;;21.93;47.61;98883.66;435341;1255;108520;-41
2023/05/29 07:51:15;;;;;;;9.90;2.70;;;;;;;22.18;46.39;98892.73;435265;1252;97473;-43
2023/05/29 08:01:23;;;;;;;6.80;2.20;;;;;;;21.54;44.31;98888.26;435402;1257;110533;-41
2023/05/29 08:11:29;;;;;;;7.30;1.90;;;;;;;21.27;43.78;98896.39;435308;1255;108190;-43
2023/05/29 08:21:37;;;;;;;10.20;2.30;;;;;;;21.76;43.21;98899.09;435447;1256;97482;-42
2023/05/29 08:31:45;;;;;;;5.30;2.10;;;;;;;22.08;42.27;98902.77;435424;1251;107737;-43
2023/05/29 08:41:50;;;;;;;6.20;3.00;;;;;;;21.81;41.14;98898.98;435339;1256;97467;-43
2023/05/29 08:52:03;;;;;;;9.30;2.50;;;;;;;21.72;41.45;98901.77;435384;1251;97862;-42
2023/05/29 09:12:18;;;;;;;7.00;2.70;;;;;;;22.62;41.67;98905.10;435408;1257;97958;-43
2023/05/29 09:22:25;;;;;;;7.80;2.40;;;;;;;22.99;40.41;98906.11;435485;1263;109722;-42
2023/05/29 09:32:34;;;;;;;6.30;2.00;;;;;;;23.02;39.65;98902.67;435370;1254;111482;-43
2023/05/29 09:42:42;;;;;;;5.10;2.20;;;;;;;23.01;39.42;98894.56;435489;1252;97876;-42
2023/05/29 09:52:52;;;;;;;;;;;;;;;23.23;38.86;98893.13;435383;1256;108686;-43
2023/05/29 10:02:59;;;;;;;4.10;2.20;;;;;;;22.70;38.75;98895.23;435367;1251;96635;-41
2023/05/29 10:13:11;;;;;;;10.20;2.80;;;;;;;22.39;38.98;98890.95;435454;1254;110744;-41
2023/05/29 10:23:19;;;;;;;5.70;2.10;;;;;;;22.65;39.50;98888.42;435153;1251;107837;-44
2023/05/29 10:43:33;;;;;;;4.80;2.20;;;;;;;22.48;36.45;98883.49;435382;1263;109984;-41
2023/05/29 10:53:43;;;;;;;7.80;2.60;;;;;;;22.70;36.91;98876.79;435228;1251;107014;-42
2023/05/29 11:03:52;;;;;;;3.10;2.20;;;;;;;23.26;37.02;98867.45;435265;1254;97869;-43
2023/05/29 11:34:13;;;;;;;6.60;2.70;;;;;;;23.69;36.30;98851.15;435405;1254;97874;-42
2023/05/29 11:44:21;;;;;;;5.00;2.30;;;;;;;23.19;35.88;98850.29;435465;1254;107712;-45
2023/05/29 11:54:29;;;;;;;6.80;2.00;;;;;;;23.44;35.84;98851.08;435426;1251;97895;-43
2023/05/29 12:04:34;;;;;;;;;;;;;;;23.34;36.25;98841.70;435325;1254;109757;-43
2023/05/29 12:14:41;;;;;;;4.90;1.90;;;;;;;23.13;36.35;98836.77;435173;1250;107188;-44
2023/05/29 12:24:49;;;;;;;3.60;2.00;;;;;;;22.97;36.26;98826.92;435263;1251;97919;-42
2023/05/29 12:34:57;;;;;;;5.80;2.60;;;;;;;23.07;36.64;98824.31;435291;1251;109207;-42
2023/05/29 12:55:11;;;;;;;7.50;2.10;;;;;;;22.74;36.39;98807.86;435400;1254;109021;-44
2023/05/29 13:05:22;;;;;;;8.00;2.00;;;;;;;22.82;36.59;98794.37;435351;1254;107970;-44
2023/05/29 13:15:32;;;;;;;4.50;2.20;;;;;;;23.06;36.09;98782.85;435440;1251;97970;-45
2023/05/29 13:25:40;;;;;;;8.20;2.50;;;;;;;23.26;36.06;98775.91;435453;1254;109951;-43
2023/05/29 13:35:47;;;;;;;9.80;2.10;;;;;;;23.29;35.89;98765.55;435233;1251;108541;-44
2023/05/29 13:45:53;;;;;;;;;;;;;;;23.21;35.84;98755.23;435369;1250;97865;-42
2023/05/29 13:56:01;;;;;;;3.90;2.30;;;;;;;23.31;36.09;98749.09;435421;1251;110295;-43
2023/05/29 14:16:13;;;;;;;6.70;3.30;;;;;;;23.22;34.84;98743.44;435452;1251;97924;-44
2023/05/29 14:26:20;;;;;;;6.10;2.50;;;;;;;23.10;35.03;98737.80;435391;1251;109417;-43
2023/05/29 14:36:26;;;;;;;;;;;;;;;23.09;35.15;98728.14;435369;1254;108500;-44
2023/05/29 14:46:33;;;;;;;5.70;2.80;;;;;;;23.18;35.55;98720.13;435373;1251;97861;-43
2023/05/29 14:56:41;;;;;;;6.40;2.40;;;;;;;23.27;35.05;98711.98;435367;1254;110724;-44
2023/05/29 15:06:48;;;;;;;6.80;2.40;;;;;;;23.24;35.00;98715.33;435244;1254;109699;-43
2023/05/29 15:17:11;;;;;;;13.40;2.90;;;;;;;23.23;34.91;98706.34;435203;1253;97938;-43
2023/05/29 15:27:18;;;;;;;4.70;2.70;;;;;;;23.16;34.96;98699.94;435364;1250;109555;-42
2023/05/29 15:37:24;;;;;;;;;;;;;;;23.01;34.34;98697.69;435357;1251;97925;-44
2023/05/29 15:47:31;;;;;;;7.20;2.30;;;;;;;22.95;34.71;98698.45;435320;1254;110526;-44
2023/05/29 15:57:39;;;;;;;5.80;2.30;;;;;;;22.88;34.50;98708.02;435037;1250;416521;-42
2023/05/29 16:17:55;;;;;;;6.80;2.80;;;;;;;22.75;34.43;98716.98;435523;1250;110435;-44
2023/05/29 16:28:01;;;;;;;;;;;;;;;22.48;34.11;98721.77;435290;1251;108602;-44
2023/05/29 16:38:09;;;;;;;8.70;3.40;;;;;;;22.07;34.72;98724.91;435441;1254;97873;-43
2023/05/29 16:48:17;;;;;;;38.20;4.70;;;;;;;21.70;35.27;98725.48;435399;1250;109896;-42
2023/05/29 16:58:23;;;;;;;;;;;;;;;21.55;35.75;98725.86;435370;1254;107833;-43
2023/05/29 17:08:30;;;;;;;10.60;3.40;;;;;;;21.29;36.29;98725.80;435544;1254;97362;-43
2023/05/29 17:18:37;;;;;;;6.50;3.50;;;;;;;21.06;36.88;98726.45;435251;1254;111630;-42
2023/05/29 17:28:44;;;;;;;12.20;3.80;;;;;;;20.86;37.59;98729.16;435271;1250;108708;-45
2023/05/29 17:38:52;;;;;;;13.20;4.80;;;;;;;20.57;38.26;98729.94;435294;1254;97887;-42
2023/05/29 17:48:59;;;;;;;10.20;4.50;;;;;;;20.22;39.03;98732.14;435405;1254;110397;-44
2023/05/29 17:59:06;;;;;;;10.60;4.60;;;;;;;19.86;39.85;98733.90;435341;1250;107240;-43
2023/05/29 18:09:13;;;;;;;8.90;5.30;;;;;;;19.56;40.58;98739.71;435400;1254;96667;-43
2023/05/29 18:39:34;;;;;;;26.90;13.10;;;;;;;18.40;43.42;98749.69;435239;1250;97883;-43
2023/05/29 18:49:42;;;;;;;81.10;16.10;;;;;;;17.93;44.30;98763.15;435365;1251;108660;-44
2023/05/29 18:59:51;;;;;;;101.10;13.60;;;;;;;17.48;45.19;98768.92;435451;1253;97880;-43
2023/05/29 19:09:58;;;;;;;31.30;10.00;;;;;;;17.05;46.06;98778.39;435399;1250;109602;-44
2023/05/29 19:20:07;;;;;;;60.80;13.10;;;;;;;16.63;47.24;98779.32;435439;1254;108558;-43
2023/05/29 19:30:18;;;;;;;51.60;18.80;;;;;;;16.25;48.32;98790.96;435229;1250;97932;-43
2023/05/29 19:40:24;;;;;;;39.30;18.20;;;;;;;15.91;49.08;98798.41;435370;1250;109679;-43
2023/05/29 19:50:32;;;;;;;36.50;17.40;;;;;;;15.48;49.83;98806.63;435314;1254;107936;-43
2023/05/29 20:00:39;;;;;;;22.10;9.50;;;;;;;15.20;50.81;98822.77;435412;1256;97881;-42
2023/05/29 20:10:47;;;;;;;22.50;9.00;;;;;;;14.86;51.49;98845.08;435384;1254;110685;-43
2023/05/29 20:21:04;;;;;;;20.00;9.00;;;;;;;14.82;52.14;98844.39;435279;1254;108338;-43
2023/05/29 20:31:11;;;;;;;18.10;8.60;;;;;;;14.84;52.62;98845.73;435997;1254;97599;-42
2023/05/29 20:41:18;;;;;;;18.90;9.10;;;;;;;14.68;53.08;98846.98;435477;1251;110674;-41
2023/05/29 20:51:26;;;;;;;18.70;9.20;;;;;;;14.53;53.74;98848.46;435213;1250;108417;-43
2023/05/29 21:01:34;;;;;;;16.80;9.40;;;;;;;14.37;54.18;98846.97;436311;1250;96629;-43
2023/05/29 21:11:41;;;;;;;18.90;9.50;;;;;;;14.21;54.78;98854.92;435836;1250;110487;-42
2023/05/29 21:21:48;;;;;;;15.60;8.30;;;;;;;14.15;55.30;98860.42;435218;1254;107238;-43
2023/05/29 21:31:57;;;;;;;23.60;8.40;;;;;;;14.18;55.50;98852.80;435755;1251;97602;-42
2023/05/29 21:42:03;;;;;;;;;;;;;;;14.26;55.68;98845.90;435283;1256;107174;-43
2023/05/29 21:52:07;;;;;;;;;;;;;;;14.17;55.91;98846.93;435301;1251;97496;-43
2023/05/29 22:02:13;;;;;;;;;;;;;;;14.13;56.10;98846.53;436845;1254;108615;-42
2023/05/29 22:12:20;;;;;;;;;;;;;;;14.07;56.57;98840.23;435253;1256;109300;-42
2023/05/29 22:22:26;;;;;;;;;;;;;;;14.01;56.87;98844.48;435401;1256;121129;-41
2023/05/29 22:32:31;;;;;;;;;;;;;;;13.92;57.13;98843.06;435405;1250;110939;-42
2023/05/29 22:52:44;;;;;;;;;;;;;;;13.77;57.90;98845.16;435379;1256;97163;-42
2023/05/29 23:02:50;;;;;;;;;;;;;;;13.70;58.14;98846.42;435320;1256;111945;-42
2023/05/29 23:12:56;;;;;;;;;;;;;;;13.66;58.65;98841.01;435455;1256;108163;-42
2023/05/29 23:23:02;;;;;;;;;;;;;;;13.65;58.84;98838.70;435395;1255;97953;-42
2023/05/29 23:33:06;;;;;;;;;;;;;;;13.63;59.22;98838.48;435424;1256;110438;-41
2023/05/29 23:43:12;;;;;;;;;;;;;;;13.64;59.44;98834.07;435382;1256;98187;-44
2023/05/29 23:53:17;;;;;;;;;;;;;;;13.67;59.77;98827.89;435337;1250;97493;-44
